sensor_id;sensor_type;location;lat;lon;timestamp;P1;durP1;ratioP1;P2;durP2;ratioP2
14272;SDS011;7220;49.450;11.052;2022-07-23T00:03:36;14.68;;;10.30;;
14272;SDS011;7220;49.450;11.052;2022-07-23T00:07:36;9.85;;;8.77;;
14272;SDS011;7220;49.450;11.052;2022-07-23T00:11:37;10.30;;;9.25;;
14272;SDS011;7220;49.450;11.052;2022-07-23T00:15:37;12.63;;;9.32;;
14272;SDS011;7220;49.450;11.052;2022-07-23T00:19:38;10.75;;;8.68;;
14272;SDS011;7220;49.450;11.052;2022-07-23T00:23:39;9.93;;;8.90;;
14272;SDS011;7220;49.450;11.052;2022-07-23T00:27:39;11.45;;;9.40;;
14272;SDS011;7220;49.450;11.052;2022-07-23T00:31:39;9.27;;;8.43;;
14272;SDS011;7220;49.450;11.052;2022-07-23T00:35:41;13.48;;;11.10;;
14272;SDS011;7220;49.450;11.052;2022-07-23T00:39:43;11.57;;;10.38;;
14272;SDS011;7220;49.450;11.052;2022-07-23T00:43:43;11.05;;;9.95;;
14272;SDS011;7220;49.450;11.052;2022-07-23T00:47:44;13.35;;;11.00;;
14272;SDS011;7220;49.450;11.052;2022-07-23T00:51:44;11.05;;;9.98;;
14272;SDS011;7220;49.450;11.052;2022-07-23T00:55:45;10.55;;;9.55;;
14272;SDS011;7220;49.450;11.052;2022-07-23T00:59:45;13.10;;;9.38;;
14272;SDS011;7220;49.450;11.052;2022-07-23T01:03:45;10.98;;;9.25;;
14272;SDS011;7220;49.450;11.052;2022-07-23T01:07:46;11.57;;;10.02;;
14272;SDS011;7220;49.450;11.052;2022-07-23T01:11:46;10.80;;;9.30;;
14272;SDS011;7220;49.450;11.052;2022-07-23T01:15:47;10.52;;;9.18;;
14272;SDS011;7220;49.450;11.052;2022-07-23T01:19:48;11.98;;;8.73;;
14272;SDS011;7220;49.450;11.052;2022-07-23T01:23:48;9.85;;;8.85;;
14272;SDS011;7220;49.450;11.052;2022-07-23T01:27:49;11.02;;;9.82;;
14272;SDS011;7220;49.450;11.052;2022-07-23T01:31:52;10.70;;;9.70;;
14272;SDS011;7220;49.450;11.052;2022-07-23T01:35:52;11.32;;;10.20;;
14272;SDS011;7220;49.450;11.052;2022-07-23T01:39:53;11.05;;;9.95;;
14272;SDS011;7220;49.450;11.052;2022-07-23T01:43:53;11.95;;;10.85;;
14272;SDS011;7220;49.450;11.052;2022-07-23T01:47:53;12.80;;;11.60;;
14272;SDS011;7220;49.450;11.052;2022-07-23T01:51:54;12.30;;;11.20;;
14272;SDS011;7220;49.450;11.052;2022-07-23T01:56:01;12.77;;;11.50;;
14272;SDS011;7220;49.450;11.052;2022-07-23T02:00:03;11.68;;;10.63;;
14272;SDS011;7220;49.450;11.052;2022-07-23T02:04:03;11.60;;;10.32;;
14272;SDS011;7220;49.450;11.052;2022-07-23T02:08:04;11.23;;;10.13;;
14272;SDS011;7220;49.450;11.052;2022-07-23T02:12:05;13.05;;;10.13;;
14272;SDS011;7220;49.450;11.052;2022-07-23T02:16:06;11.40;;;10.35;;
14272;SDS011;7220;49.450;11.052;2022-07-23T02:20:07;11.25;;;10.25;;
14272;SDS011;7220;49.450;11.052;2022-07-23T02:24:08;12.40;;;10.63;;
14272;SDS011;7220;49.450;11.052;2022-07-23T02:28:09;11.50;;;10.43;;
14272;SDS011;7220;49.450;11.052;2022-07-23T02:32:09;11.65;;;9.57;;
14272;SDS011;7220;49.450;11.052;2022-07-23T02:36:10;12.02;;;10.55;;
14272;SDS011;7220;49.450;11.052;2022-07-23T02:40:11;10.82;;;9.75;;
14272;SDS011;7220;49.450;11.052;2022-07-23T02:44:12;11.02;;;9.93;;
14272;SDS011;7220;49.450;11.052;2022-07-23T02:48:13;13.68;;;10.65;;
14272;SDS011;7220;49.450;11.052;2022-07-23T02:52:14;12.63;;;11.30;;
14272;SDS011;7220;49.450;11.052;2022-07-23T02:56:14;12.98;;;11.77;;
14272;SDS011;7220;49.450;11.052;2022-07-23T03:00:15;13.07;;;11.85;;
14272;SDS011;7220;49.450;11.052;2022-07-23T03:04:15;11.32;;;10.23;;
14272;SDS011;7220;49.450;11.052;2022-07-23T03:08:16;11.95;;;10.38;;
14272;SDS011;7220;49.450;11.052;2022-07-23T03:12:16;10.93;;;9.88;;
14272;SDS011;7220;49.450;11.052;2022-07-23T03:16:16;11.30;;;10.30;;
14272;SDS011;7220;49.450;11.052;2022-07-23T03:20:17;10.88;;;9.88;;
14272;SDS011;7220;49.450;11.052;2022-07-23T03:24:17;10.63;;;9.60;;
14272;SDS011;7220;49.450;11.052;2022-07-23T03:28:18;10.75;;;9.65;;
14272;SDS011;7220;49.450;11.052;2022-07-23T03:32:19;12.13;;;10.63;;
14272;SDS011;7220;49.450;11.052;2022-07-23T03:36:21;10.15;;;9.30;;
14272;SDS011;7220;49.450;11.052;2022-07-23T03:40:21;10.80;;;9.70;;
14272;SDS011;7220;49.450;11.052;2022-07-23T03:44:21;10.90;;;9.90;;
14272;SDS011;7220;49.450;11.052;2022-07-23T03:48:22;10.50;;;9.52;;
14272;SDS011;7220;49.450;11.052;2022-07-23T03:52:23;12.07;;;10.55;;
14272;SDS011;7220;49.450;11.052;2022-07-23T03:56:23;11.57;;;10.48;;
14272;SDS011;7220;49.450;11.052;2022-07-23T04:00:23;12.07;;;10.68;;
14272;SDS011;7220;49.450;11.052;2022-07-23T04:04:24;11.65;;;10.65;;
14272;SDS011;7220;49.450;11.052;2022-07-23T04:08:24;11.55;;;10.32;;
14272;SDS011;7220;49.450;11.052;2022-07-23T04:12:25;11.75;;;10.65;;
14272;SDS011;7220;49.450;11.052;2022-07-23T04:16:25;12.27;;;11.07;;
14272;SDS011;7220;49.450;11.052;2022-07-23T04:20:26;12.82;;;11.50;;
14272;SDS011;7220;49.450;11.052;2022-07-23T04:24:26;11.35;;;10.43;;
14272;SDS011;7220;49.450;11.052;2022-07-23T04:28:27;11.52;;;10.52;;
14272;SDS011;7220;49.450;11.052;2022-07-23T04:32:27;11.57;;;10.45;;
14272;SDS011;7220;49.450;11.052;2022-07-23T04:36:28;10.27;;;9.27;;
14272;SDS011;7220;49.450;11.052;2022-07-23T04:40:29;10.65;;;9.57;;
14272;SDS011;7220;49.450;11.052;2022-07-23T04:44:30;10.35;;;9.25;;
14272;SDS011;7220;49.450;11.052;2022-07-23T04:48:30;10.10;;;9.10;;
14272;SDS011;7220;49.450;11.052;2022-07-23T04:52:31;13.60;;;10.02;;
14272;SDS011;7220;49.450;11.052;2022-07-23T04:56:32;9.93;;;8.90;;
14272;SDS011;7220;49.450;11.052;2022-07-23T05:00:32;10.05;;;9.25;;
14272;SDS011;7220;49.450;11.052;2022-07-23T05:04:33;9.40;;;8.50;;
14272;SDS011;7220;49.450;11.052;2022-07-23T05:08:33;10.45;;;8.93;;
14272;SDS011;7220;49.450;11.052;2022-07-23T05:12:34;9.38;;;8.43;;
14272;SDS011;7220;49.450;11.052;2022-07-23T05:16:35;8.75;;;7.95;;
14272;SDS011;7220;49.450;11.052;2022-07-23T05:20:36;9.77;;;8.38;;
14272;SDS011;7220;49.450;11.052;2022-07-23T05:24:36;9.88;;;8.32;;
14272;SDS011;7220;49.450;11.052;2022-07-23T05:28:37;8.55;;;7.65;;
14272;SDS011;7220;49.450;11.052;2022-07-23T05:32:37;9.18;;;7.47;;
14272;SDS011;7220;49.450;11.052;2022-07-23T05:36:38;6.93;;;6.28;;
14272;SDS011;7220;49.450;11.052;2022-07-23T05:40:38;9.25;;;6.72;;
14272;SDS011;7220;49.450;11.052;2022-07-23T05:44:38;7.07;;;6.47;;
14272;SDS011;7220;49.450;11.052;2022-07-23T05:48:39;6.57;;;6.00;;
14272;SDS011;7220;49.450;11.052;2022-07-23T05:52:39;6.75;;;5.55;;
14272;SDS011;7220;49.450;11.052;2022-07-23T05:56:40;6.55;;;5.40;;
14272;SDS011;7220;49.450;11.052;2022-07-23T06:00:41;6.50;;;5.90;;
14272;SDS011;7220;49.450;11.052;2022-07-23T06:04:41;6.40;;;5.78;;
14272;SDS011;7220;49.450;11.052;2022-07-23T06:08:42;5.68;;;5.25;;
14272;SDS011;7220;49.450;11.052;2022-07-23T06:12:42;6.07;;;5.45;;
14272;SDS011;7220;49.450;11.052;2022-07-23T06:16:43;6.03;;;5.53;;
14272;SDS011;7220;49.450;11.052;2022-07-23T06:20:43;5.68;;;5.00;;
14272;SDS011;7220;49.450;11.052;2022-07-23T06:24:43;5.90;;;5.35;;
14272;SDS011;7220;49.450;11.052;2022-07-23T06:28:44;6.35;;;5.75;;
14272;SDS011;7220;49.450;11.052;2022-07-23T06:32:45;5.65;;;5.15;;
14272;SDS011;7220;49.450;11.052;2022-07-23T06:36:46;6.65;;;5.32;;
14272;SDS011;7220;49.450;11.052;2022-07-23T06:40:46;6.47;;;4.85;;
14272;SDS011;7220;49.450;11.052;2022-07-23T06:44:47;5.85;;;5.35;;
14272;SDS011;7220;49.450;11.052;2022-07-23T06:48:47;5.95;;;5.45;;
14272;SDS011;7220;49.450;11.052;2022-07-23T06:52:48;5.93;;;5.32;;
14272;SDS011;7220;49.450;11.052;2022-07-23T06:56:48;6.13;;;5.63;;
14272;SDS011;7220;49.450;11.052;2022-07-23T07:00:48;6.38;;;5.85;;
14272;SDS011;7220;49.450;11.052;2022-07-23T07:04:49;6.53;;;5.93;;
14272;SDS011;7220;49.450;11.052;2022-07-23T07:08:50;6.55;;;5.93;;
14272;SDS011;7220;49.450;11.052;2022-07-23T07:12:50;6.10;;;5.60;;
14272;SDS011;7220;49.450;11.052;2022-07-23T07:16:50;6.82;;;6.15;;
14272;SDS011;7220;49.450;11.052;2022-07-23T07:20:51;7.65;;;7.05;;
14272;SDS011;7220;49.450;11.052;2022-07-23T07:24:51;8.18;;;7.38;;
14272;SDS011;7220;49.450;11.052;2022-07-23T07:28:52;8.25;;;7.38;;
14272;SDS011;7220;49.450;11.052;2022-07-23T07:32:52;7.68;;;6.97;;
14272;SDS011;7220;49.450;11.052;2022-07-23T07:36:53;7.03;;;6.43;;
14272;SDS011;7220;49.450;11.052;2022-07-23T07:40:53;7.55;;;6.93;;
14272;SDS011;7220;49.450;11.052;2022-07-23T07:44:53;7.22;;;6.55;;
14272;SDS011;7220;49.450;11.052;2022-07-23T07:48:55;7.80;;;7.00;;
14272;SDS011;7220;49.450;11.052;2022-07-23T07:52:56;9.13;;;7.85;;
14272;SDS011;7220;49.450;11.052;2022-07-23T07:56:56;8.05;;;7.35;;
14272;SDS011;7220;49.450;11.052;2022-07-23T08:00:57;9.05;;;8.20;;
14272;SDS011;7220;49.450;11.052;2022-07-23T08:04:57;8.38;;;7.57;;
14272;SDS011;7220;49.450;11.052;2022-07-23T08:08:58;8.52;;;7.47;;
14272;SDS011;7220;49.450;11.052;2022-07-23T08:12:58;9.10;;;8.20;;
14272;SDS011;7220;49.450;11.052;2022-07-23T08:17:00;9.18;;;8.27;;
14272;SDS011;7220;49.450;11.052;2022-07-23T08:21:01;9.50;;;8.68;;
14272;SDS011;7220;49.450;11.052;2022-07-23T08:25:01;9.27;;;8.38;;
14272;SDS011;7220;49.450;11.052;2022-07-23T08:29:02;7.93;;;7.22;;
14272;SDS011;7220;49.450;11.052;2022-07-23T08:33:03;7.43;;;6.82;;
14272;SDS011;7220;49.450;11.052;2022-07-23T08:37:07;9.40;;;7.28;;
14272;SDS011;7220;49.450;11.052;2022-07-23T08:41:07;7.82;;;7.00;;
14272;SDS011;7220;49.450;11.052;2022-07-23T08:45:08;8.70;;;7.65;;
14272;SDS011;7220;49.450;11.052;2022-07-23T08:49:09;8.80;;;7.22;;
14272;SDS011;7220;49.450;11.052;2022-07-23T08:53:10;7.40;;;6.50;;
14272;SDS011;7220;49.450;11.052;2022-07-23T08:57:11;6.88;;;6.20;;
14272;SDS011;7220;49.450;11.052;2022-07-23T09:01:11;8.25;;;6.50;;
14272;SDS011;7220;49.450;11.052;2022-07-23T09:05:13;7.47;;;6.68;;
14272;SDS011;7220;49.450;11.052;2022-07-23T09:09:18;7.35;;;6.65;;
14272;SDS011;7220;49.450;11.052;2022-07-23T09:13:23;8.18;;;6.97;;
14272;SDS011;7220;49.450;11.052;2022-07-23T09:17:29;7.13;;;6.40;;
14272;SDS011;7220;49.450;11.052;2022-07-23T09:21:42;7.60;;;6.90;;
14272;SDS011;7220;49.450;11.052;2022-07-23T09:25:43;7.47;;;6.68;;
14272;SDS011;7220;49.450;11.052;2022-07-23T09:29:54;7.60;;;6.72;;
14272;SDS011;7220;49.450;11.052;2022-07-23T09:34:06;7.20;;;6.13;;
14272;SDS011;7220;49.450;11.052;2022-07-23T09:38:08;7.00;;;6.30;;
14272;SDS011;7220;49.450;11.052;2022-07-23T09:42:16;6.45;;;5.95;;
14272;SDS011;7220;49.450;11.052;2022-07-23T09:46:27;6.68;;;6.05;;
14272;SDS011;7220;49.450;11.052;2022-07-23T09:50:28;6.55;;;5.95;;
14272;SDS011;7220;49.450;11.052;2022-07-23T09:54:35;8.43;;;6.43;;
14272;SDS011;7220;49.450;11.052;2022-07-23T09:58:37;7.60;;;6.80;;
14272;SDS011;7220;49.450;11.052;2022-07-23T10:02:45;7.32;;;6.40;;
14272;SDS011;7220;49.450;11.052;2022-07-23T10:06:47;7.22;;;6.50;;
14272;SDS011;7220;49.450;11.052;2022-07-23T10:10:51;7.13;;;6.53;;
14272;SDS011;7220;49.450;11.052;2022-07-23T10:14:51;7.65;;;6.88;;
14272;SDS011;7220;49.450;11.052;2022-07-23T10:18:52;8.50;;;6.78;;
14272;SDS011;7220;49.450;11.052;2022-07-23T10:23:05;8.57;;;7.80;;
14272;SDS011;7220;49.450;11.052;2022-07-23T10:36:44;9.00;;;8.20;;
14272;SDS011;7220;49.450;11.052;2022-07-23T10:40:53;8.10;;;7.32;;
14272;SDS011;7220;49.450;11.052;2022-07-23T10:44:53;8.75;;;7.95;;
14272;SDS011;7220;49.450;11.052;2022-07-23T10:53:27;9.18;;;8.23;;
14272;SDS011;7220;49.450;11.052;2022-07-23T10:57:27;8.32;;;7.43;;
14272;SDS011;7220;49.450;11.052;2022-07-23T11:01:35;8.88;;;8.07;;
14272;SDS011;7220;49.450;11.052;2022-07-23T11:05:41;9.10;;;8.20;;
14272;SDS011;7220;49.450;11.052;2022-07-23T11:09:45;9.13;;;8.05;;
14272;SDS011;7220;49.450;11.052;2022-07-23T11:13:48;8.25;;;7.43;;
14272;SDS011;7220;49.450;11.052;2022-07-23T11:21:52;8.93;;;8.02;;
14272;SDS011;7220;49.450;11.052;2022-07-23T11:25:53;9.30;;;7.43;;
14272;SDS011;7220;49.450;11.052;2022-07-23T11:29:53;7.70;;;7.00;;
14272;SDS011;7220;49.450;11.052;2022-07-23T11:38:32;6.93;;;6.28;;
14272;SDS011;7220;49.450;11.052;2022-07-23T11:42:32;7.50;;;6.78;;
14272;SDS011;7220;49.450;11.052;2022-07-23T11:46:33;7.30;;;6.63;;
14272;SDS011;7220;49.450;11.052;2022-07-23T11:50:35;7.50;;;6.90;;
14272;SDS011;7220;49.450;11.052;2022-07-23T11:54:37;7.28;;;6.68;;
14272;SDS011;7220;49.450;11.052;2022-07-23T11:58:56;6.50;;;5.90;;
14272;SDS011;7220;49.450;11.052;2022-07-23T12:02:59;6.72;;;6.20;;
14272;SDS011;7220;49.450;11.052;2022-07-23T12:07:01;7.35;;;6.65;;
14272;SDS011;7220;49.450;11.052;2022-07-23T12:11:01;7.70;;;6.90;;
14272;SDS011;7220;49.450;11.052;2022-07-23T12:15:03;6.90;;;6.18;;
14272;SDS011;7220;49.450;11.052;2022-07-23T12:19:04;7.80;;;7.03;;
14272;SDS011;7220;49.450;11.052;2022-07-23T12:23:06;7.80;;;7.10;;
14272;SDS011;7220;49.450;11.052;2022-07-23T12:27:08;8.13;;;7.45;;
14272;SDS011;7220;49.450;11.052;2022-07-23T12:31:11;7.60;;;7.00;;
14272;SDS011;7220;49.450;11.052;2022-07-23T12:35:12;8.52;;;7.43;;
14272;SDS011;7220;49.450;11.052;2022-07-23T12:39:28;7.53;;;6.93;;
14272;SDS011;7220;49.450;11.052;2022-07-23T12:43:31;7.00;;;6.40;;
14272;SDS011;7220;49.450;11.052;2022-07-23T12:47:50;9.57;;;8.70;;
14272;SDS011;7220;49.450;11.052;2022-07-23T12:51:55;7.78;;;7.07;;
14272;SDS011;7220;49.450;11.052;2022-07-23T12:56:56;7.30;;;6.70;;
14272;SDS011;7220;49.450;11.052;2022-07-23T13:00:28;11.00;;;9.80;;
14272;SDS011;7220;49.450;11.052;2022-07-23T13:04:28;7.88;;;7.18;;
14272;SDS011;7220;49.450;11.052;2022-07-23T13:08:30;7.05;;;6.45;;
14272;SDS011;7220;49.450;11.052;2022-07-23T13:12:31;6.15;;;5.65;;
14272;SDS011;7220;49.450;11.052;2022-07-23T13:16:32;9.93;;;9.02;;
14272;SDS011;7220;49.450;11.052;2022-07-23T13:20:33;8.02;;;7.30;;
14272;SDS011;7220;49.450;11.052;2022-07-23T13:24:34;6.95;;;6.35;;
14272;SDS011;7220;49.450;11.052;2022-07-23T13:28:34;6.82;;;6.32;;
14272;SDS011;7220;49.450;11.052;2022-07-23T13:32:35;8.30;;;7.60;;
14272;SDS011;7220;49.450;11.052;2022-07-23T13:36:35;7.00;;;6.40;;
14272;SDS011;7220;49.450;11.052;2022-07-23T13:40:37;15.48;;;14.07;;
14272;SDS011;7220;49.450;11.052;2022-07-23T13:44:39;13.93;;;12.70;;
14272;SDS011;7220;49.450;11.052;2022-07-23T13:48:40;9.93;;;9.02;;
14272;SDS011;7220;49.450;11.052;2022-07-23T13:52:40;6.88;;;6.35;;
14272;SDS011;7220;49.450;11.052;2022-07-23T13:56:41;7.72;;;6.70;;
14272;SDS011;7220;49.450;11.052;2022-07-23T14:00:42;6.70;;;6.10;;
14272;SDS011;7220;49.450;11.052;2022-07-23T14:04:44;6.18;;;5.68;;
14272;SDS011;7220;49.450;11.052;2022-07-23T14:08:45;7.10;;;6.47;;
14272;SDS011;7220;49.450;11.052;2022-07-23T14:12:46;7.20;;;6.70;;
14272;SDS011;7220;49.450;11.052;2022-07-23T14:16:47;7.35;;;6.75;;
14272;SDS011;7220;49.450;11.052;2022-07-23T14:20:48;6.93;;;6.43;;
14272;SDS011;7220;49.450;11.052;2022-07-23T14:24:48;8.02;;;7.25;;
14272;SDS011;7220;49.450;11.052;2022-07-23T14:28:49;7.32;;;6.70;;
14272;SDS011;7220;49.450;11.052;2022-07-23T14:32:50;7.50;;;6.82;;
14272;SDS011;7220;49.450;11.052;2022-07-23T14:36:51;6.57;;;6.07;;
14272;SDS011;7220;49.450;11.052;2022-07-23T14:40:52;7.57;;;6.90;;
14272;SDS011;7220;49.450;11.052;2022-07-23T14:44:52;7.53;;;6.85;;
14272;SDS011;7220;49.450;11.052;2022-07-23T14:48:53;7.53;;;6.82;;
14272;SDS011;7220;49.450;11.052;2022-07-23T14:52:53;7.07;;;6.57;;
14272;SDS011;7220;49.450;11.052;2022-07-23T14:56:55;6.07;;;5.63;;
14272;SDS011;7220;49.450;11.052;2022-07-23T15:00:57;7.05;;;6.43;;
14272;SDS011;7220;49.450;11.052;2022-07-23T15:04:57;6.25;;;5.75;;
14272;SDS011;7220;49.450;11.052;2022-07-23T15:09:01;6.82;;;6.25;;
14272;SDS011;7220;49.450;11.052;2022-07-23T15:13:01;8.00;;;6.43;;
14272;SDS011;7220;49.450;11.052;2022-07-23T15:17:02;7.18;;;6.55;;
14272;SDS011;7220;49.450;11.052;2022-07-23T15:21:02;6.60;;;6.10;;
14272;SDS011;7220;49.450;11.052;2022-07-23T15:25:04;9.18;;;6.82;;
14272;SDS011;7220;49.450;11.052;2022-07-23T15:29:05;6.70;;;6.15;;
14272;SDS011;7220;49.450;11.052;2022-07-23T15:33:06;7.50;;;6.50;;
14272;SDS011;7220;49.450;11.052;2022-07-23T15:37:07;7.00;;;6.40;;
14272;SDS011;7220;49.450;11.052;2022-07-23T15:41:08;6.10;;;5.60;;
14272;SDS011;7220;49.450;11.052;2022-07-23T15:45:08;5.80;;;5.30;;
14272;SDS011;7220;49.450;11.052;2022-07-23T15:49:09;7.07;;;6.03;;
14272;SDS011;7220;49.450;11.052;2022-07-23T15:53:10;6.18;;;5.68;;
14272;SDS011;7220;49.450;11.052;2022-07-23T15:57:10;6.30;;;5.78;;
14272;SDS011;7220;49.450;11.052;2022-07-23T16:01:11;6.47;;;5.97;;
14272;SDS011;7220;49.450;11.052;2022-07-23T16:05:12;6.75;;;6.07;;
14272;SDS011;7220;49.450;11.052;2022-07-23T16:09:13;6.68;;;6.03;;
14272;SDS011;7220;49.450;11.052;2022-07-23T16:13:13;8.65;;;6.40;;
14272;SDS011;7220;49.450;11.052;2022-07-23T16:17:14;7.35;;;6.68;;
14272;SDS011;7220;49.450;11.052;2022-07-23T16:21:14;7.38;;;6.75;;
14272;SDS011;7220;49.450;11.052;2022-07-23T16:25:15;7.25;;;6.65;;
14272;SDS011;7220;49.450;11.052;2022-07-23T16:29:15;7.18;;;6.47;;
14272;SDS011;7220;49.450;11.052;2022-07-23T16:33:15;7.63;;;6.90;;
14272;SDS011;7220;49.450;11.052;2022-07-23T16:37:16;7.63;;;6.75;;
14272;SDS011;7220;49.450;11.052;2022-07-23T16:41:16;7.28;;;6.57;;
14272;SDS011;7220;49.450;11.052;2022-07-23T16:45:17;7.82;;;6.50;;
14272;SDS011;7220;49.450;11.052;2022-07-23T16:49:17;6.70;;;6.00;;
14272;SDS011;7220;49.450;11.052;2022-07-23T16:53:18;7.22;;;6.63;;
14272;SDS011;7220;49.450;11.052;2022-07-23T16:57:18;7.45;;;6.75;;
14272;SDS011;7220;49.450;11.052;2022-07-23T17:01:19;6.90;;;6.25;;
14272;SDS011;7220;49.450;11.052;2022-07-23T17:05:21;7.43;;;6.72;;
14272;SDS011;7220;49.450;11.052;2022-07-23T17:09:21;6.30;;;5.70;;
14272;SDS011;7220;49.450;11.052;2022-07-23T17:13:22;7.68;;;6.88;;
14272;SDS011;7220;49.450;11.052;2022-07-23T17:17:22;7.55;;;6.95;;
14272;SDS011;7220;49.450;11.052;2022-07-23T17:21:23;7.28;;;6.60;;
14272;SDS011;7220;49.450;11.052;2022-07-23T17:25:23;7.35;;;6.75;;
14272;SDS011;7220;49.450;11.052;2022-07-23T17:29:24;8.95;;;7.78;;
14272;SDS011;7220;49.450;11.052;2022-07-23T17:33:24;7.80;;;7.10;;
14272;SDS011;7220;49.450;11.052;2022-07-23T17:37:25;8.85;;;8.05;;
14272;SDS011;7220;49.450;11.052;2022-07-23T17:41:26;8.27;;;7.47;;
14272;SDS011;7220;49.450;11.052;2022-07-23T17:45:26;7.05;;;6.45;;
14272;SDS011;7220;49.450;11.052;2022-07-23T17:49:27;8.10;;;7.00;;
14272;SDS011;7220;49.450;11.052;2022-07-23T17:53:27;7.00;;;6.40;;
14272;SDS011;7220;49.450;11.052;2022-07-23T17:57:28;7.07;;;6.47;;
14272;SDS011;7220;49.450;11.052;2022-07-23T18:01:29;7.43;;;6.72;;
14272;SDS011;7220;49.450;11.052;2022-07-23T18:05:29;8.00;;;7.20;;
14272;SDS011;7220;49.450;11.052;2022-07-23T18:09:31;8.23;;;7.53;;
14272;SDS011;7220;49.450;11.052;2022-07-23T18:13:31;9.27;;;8.38;;
14272;SDS011;7220;49.450;11.052;2022-07-23T18:17:32;7.63;;;6.95;;
14272;SDS011;7220;49.450;11.052;2022-07-23T18:21:35;7.63;;;6.93;;
14272;SDS011;7220;49.450;11.052;2022-07-23T18:25:36;8.45;;;7.00;;
14272;SDS011;7220;49.450;11.052;2022-07-23T18:29:36;7.72;;;6.57;;
14272;SDS011;7220;49.450;11.052;2022-07-23T18:33:37;7.88;;;6.43;;
14272;SDS011;7220;49.450;11.052;2022-07-23T18:37:40;7.22;;;6.63;;
14272;SDS011;7220;49.450;11.052;2022-07-23T18:41:41;7.70;;;6.88;;
14272;SDS011;7220;49.450;11.052;2022-07-23T18:45:42;7.45;;;6.78;;
14272;SDS011;7220;49.450;11.052;2022-07-23T18:49:42;7.25;;;6.60;;
14272;SDS011;7220;49.450;11.052;2022-07-23T18:53:43;8.27;;;7.55;;
14272;SDS011;7220;49.450;11.052;2022-07-23T18:57:45;7.88;;;7.13;;
14272;SDS011;7220;49.450;11.052;2022-07-23T19:01:46;7.68;;;6.88;;
14272;SDS011;7220;49.450;11.052;2022-07-23T19:05:47;7.40;;;6.70;;
14272;SDS011;7220;49.450;11.052;2022-07-23T19:09:47;7.95;;;6.78;;
14272;SDS011;7220;49.450;11.052;2022-07-23T19:13:48;7.35;;;6.68;;
14272;SDS011;7220;49.450;11.052;2022-07-23T19:17:48;7.25;;;6.53;;
14272;SDS011;7220;49.450;11.052;2022-07-23T19:21:48;7.28;;;6.68;;
14272;SDS011;7220;49.450;11.052;2022-07-23T19:25:49;8.13;;;7.40;;
14272;SDS011;7220;49.450;11.052;2022-07-23T19:29:49;8.00;;;7.20;;
14272;SDS011;7220;49.450;11.052;2022-07-23T19:33:50;9.18;;;8.23;;
14272;SDS011;7220;49.450;11.052;2022-07-23T19:37:51;10.02;;;9.13;;
14272;SDS011;7220;49.450;11.052;2022-07-23T19:41:51;10.48;;;9.52;;
14272;SDS011;7220;49.450;11.052;2022-07-23T19:45:52;10.45;;;9.43;;
14272;SDS011;7220;49.450;11.052;2022-07-23T19:49:52;8.68;;;7.78;;
14272;SDS011;7220;49.450;11.052;2022-07-23T19:53:53;9.57;;;8.35;;
14272;SDS011;7220;49.450;11.052;2022-07-23T19:57:54;8.77;;;7.88;;
14272;SDS011;7220;49.450;11.052;2022-07-23T20:01:55;8.27;;;7.57;;
14272;SDS011;7220;49.450;11.052;2022-07-23T20:05:56;9.05;;;7.88;;
14272;SDS011;7220;49.450;11.052;2022-07-23T20:09:56;8.98;;;8.18;;
14272;SDS011;7220;49.450;11.052;2022-07-23T20:13:57;8.23;;;7.43;;
14272;SDS011;7220;49.450;11.052;2022-07-23T20:17:57;10.48;;;9.43;;
14272;SDS011;7220;49.450;11.052;2022-07-23T20:22:00;10.85;;;9.75;;
14272;SDS011;7220;49.450;11.052;2022-07-23T20:26:01;11.20;;;10.10;;
14272;SDS011;7220;49.450;11.052;2022-07-23T20:30:02;10.35;;;9.35;;
14272;SDS011;7220;49.450;11.052;2022-07-23T20:34:04;9.52;;;8.40;;
14272;SDS011;7220;49.450;11.052;2022-07-23T20:38:04;9.00;;;8.20;;
14272;SDS011;7220;49.450;11.052;2022-07-23T20:42:05;9.68;;;8.70;;
14272;SDS011;7220;49.450;11.052;2022-07-23T20:46:06;10.48;;;9.48;;
14272;SDS011;7220;49.450;11.052;2022-07-23T20:50:06;9.73;;;8.82;;
14272;SDS011;7220;49.450;11.052;2022-07-23T20:54:08;11.05;;;8.88;;
14272;SDS011;7220;49.450;11.052;2022-07-23T20:58:08;10.38;;;9.48;;
14272;SDS011;7220;49.450;11.052;2022-07-23T21:02:09;11.95;;;9.30;;
14272;SDS011;7220;49.450;11.052;2022-07-23T21:06:09;10.52;;;8.73;;
14272;SDS011;7220;49.450;11.052;2022-07-23T21:10:11;10.63;;;9.63;;
14272;SDS011;7220;49.450;11.052;2022-07-23T21:14:12;10.35;;;9.38;;
14272;SDS011;7220;49.450;11.052;2022-07-23T21:18:12;10.48;;;9.43;;
14272;SDS011;7220;49.450;11.052;2022-07-23T21:22:13;9.50;;;8.68;;
14272;SDS011;7220;49.450;11.052;2022-07-23T21:26:15;10.85;;;9.75;;
14272;SDS011;7220;49.450;11.052;2022-07-23T21:30:16;9.57;;;8.65;;
14272;SDS011;7220;49.450;11.052;2022-07-23T21:34:16;9.00;;;8.20;;
14272;SDS011;7220;49.450;11.052;2022-07-23T21:38:17;10.18;;;9.27;;
14272;SDS011;7220;49.450;11.052;2022-07-23T21:42:17;10.65;;;9.55;;
14272;SDS011;7220;49.450;11.052;2022-07-23T21:46:17;9.68;;;8.70;;
14272;SDS011;7220;49.450;11.052;2022-07-23T21:50:18;11.48;;;10.27;;
14272;SDS011;7220;49.450;11.052;2022-07-23T21:54:18;10.50;;;9.50;;
14272;SDS011;7220;49.450;11.052;2022-07-23T21:58:19;10.95;;;9.98;;
14272;SDS011;7220;49.450;11.052;2022-07-23T22:02:21;12.77;;;9.75;;
14272;SDS011;7220;49.450;11.052;2022-07-23T22:06:22;11.38;;;10.32;;
14272;SDS011;7220;49.450;11.052;2022-07-23T22:10:22;10.68;;;9.65;;
14272;SDS011;7220;49.450;11.052;2022-07-23T22:14:23;11.02;;;9.93;;
14272;SDS011;7220;49.450;11.052;2022-07-23T22:18:24;10.52;;;9.52;;
14272;SDS011;7220;49.450;11.052;2022-07-23T22:22:25;11.07;;;9.43;;
14272;SDS011;7220;49.450;11.052;2022-07-23T22:26:26;9.85;;;8.93;;
14272;SDS011;7220;49.450;11.052;2022-07-23T22:30:28;11.07;;;9.57;;
14272;SDS011;7220;49.450;11.052;2022-07-23T22:34:29;12.27;;;10.15;;
14272;SDS011;7220;49.450;11.052;2022-07-23T22:38:30;11.23;;;10.20;;
14272;SDS011;7220;49.450;11.052;2022-07-23T22:42:30;10.90;;;9.82;;
14272;SDS011;7220;49.450;11.052;2022-07-23T22:46:31;10.77;;;9.77;;
14272;SDS011;7220;49.450;11.052;2022-07-23T22:50:31;9.73;;;8.80;;
14272;SDS011;7220;49.450;11.052;2022-07-23T22:54:33;10.77;;;9.88;;
14272;SDS011;7220;49.450;11.052;2022-07-23T22:58:33;9.40;;;8.57;;
14272;SDS011;7220;49.450;11.052;2022-07-23T23:02:34;10.20;;;9.38;;
14272;SDS011;7220;49.450;11.052;2022-07-23T23:06:35;9.90;;;9.10;;
14272;SDS011;7220;49.450;11.052;2022-07-23T23:10:35;10.35;;;9.45;;
14272;SDS011;7220;49.450;11.052;2022-07-23T23:14:36;10.40;;;9.40;;
14272;SDS011;7220;49.450;11.052;2022-07-23T23:18:36;9.68;;;8.88;;
14272;SDS011;7220;49.450;11.052;2022-07-23T23:22:37;11.25;;;10.15;;
14272;SDS011;7220;49.450;11.052;2022-07-23T23:26:37;10.68;;;9.45;;
14272;SDS011;7220;49.450;11.052;2022-07-23T23:30:38;11.13;;;10.13;;
14272;SDS011;7220;49.450;11.052;2022-07-23T23:34:38;10.82;;;9.82;;
14272;SDS011;7220;49.450;11.052;2022-07-23T23:38:38;10.50;;;9.60;;
14272;SDS011;7220;49.450;11.052;2022-07-23T23:42:39;11.52;;;9.68;;
14272;SDS011;7220;49.450;11.052;2022-07-23T23:46:39;11.75;;;9.43;;
14272;SDS011;7220;49.450;11.052;2022-07-23T23:50:40;10.25;;;9.35;;
14272;SDS011;7220;49.450;11.052;2022-07-23T23:54:40;10.63;;;9.73;;
14272;SDS011;7220;49.450;11.052;2022-07-23T23:58:42;10.90;;;10.00;;
